Terminal Aerodrome Forecast
Issued by NWS Charleston, WV

Current Version | Previous Version | Graphics & Text | Print | Product List | Glossary On
Versions: 1 2 3 4 5 6 7 8 9 10 11 12 13 14 15 16 17 18 19 20 21 22 23 24 25
000
FTUS41 KRLX 010225 AAA
TAFCRW
TAF AMD
KCRW 010225Z 0102/0124 20006KT P6SM VCTS BKN050CB
     FM010430 32005KT P6SM BKN030
     FM010600 34003KT 5SM BR BKN025
     FM011100 35003KT 3SM BR OVC015
     FM011300 02004KT 6SM BR OVC025
     FM011800 02004KT P6SM VCTS OVC025CB
     FM012200 02004KT P6SM VCTS BKN035CB=

USA.gov is the U.S. government's official web portal to all federal, state and local government web resources and services.